Terminal Aerodrome Forecast
Issued by NWS

Home | Current Version | Previous Version | Text Only | Print | Product List | Glossary On
Versions: 1 2 3 4 5 6 7 8 9 10 11 12 13 14 15 16 17 18 19 20 21 22 23 24 25 26 27
000
FTUS44 KOHX 291700 RRA
TAFCKV
TAF
KCKV 291743Z 2918/3018 17005KT P6SM SCT040 BKN250
     FM300800 17003KT P6SM BKN050 BKN100
     FM301100 19004KT 5SM TSRA BR BKN040CB
     FM301500 21007KT P6SM TSRA BKN030CB=

USA.gov is the U.S. government's official web portal to all federal, state and local government web resources and services.